createdAt,value
2018-07-08T00:00:01.083Z,68.62
2018-07-08T00:01:01.187Z,68.43
2018-07-08T00:02:53.987Z,68.33
2018-07-08T00:03:54.007Z,68.24
2018-07-08T00:05:46.940Z,68.14
2018-07-08T00:06:46.941Z,68.33
2018-07-08T00:08:39.875Z,68.81
2018-07-08T00:09:39.870Z,69.20
2018-07-08T00:11:32.781Z,69.87
2018-07-08T00:12:32.803Z,69.93
2018-07-08T00:14:25.737Z,69.64
2018-07-08T00:15:25.734Z,69.83
2018-07-08T00:17:18.671Z,70.21
2018-07-08T00:18:18.672Z,70.50
2018-07-08T00:20:11.601Z,70.41
2018-07-08T00:21:11.599Z,70.21
2018-07-08T00:23:04.511Z,70.21
2018-07-08T00:24:04.532Z,69.54
2018-07-08T00:25:57.460Z,69.74
2018-07-08T00:26:57.460Z,69.64
2018-07-08T00:28:50.412Z,70.12
2018-07-08T00:29:50.391Z,70.21
2018-07-08T00:31:43.539Z,70.21
2018-07-08T00:32:43.519Z,70.79
2018-07-08T00:34:36.445Z,70.89
2018-07-08T00:35:36.446Z,71.27
2018-07-08T00:37:29.356Z,71.23
2018-07-08T00:38:29.375Z,71.33
2018-07-08T00:40:22.306Z,72.09
2018-07-08T00:41:22.306Z,72.38
2018-07-08T00:43:15.217Z,72.83
2018-07-08T00:44:15.254Z,72.83
2018-07-08T00:46:08.172Z,73.02
2018-07-08T00:47:08.168Z,73.30
2018-07-08T00:49:01.078Z,73.40
2018-07-08T00:50:01.098Z,74.07
2018-07-08T00:51:54.034Z,73.97
2018-07-08T00:52:54.030Z,73.97
2018-07-08T00:54:46.985Z,75.22
2018-07-08T00:55:46.962Z,75.31
2018-07-08T00:57:39.869Z,75.70
2018-07-08T00:58:39.891Z,75.31
2018-07-08T01:00:32.819Z,76.04
2018-07-08T01:01:32.852Z,75.85
2018-07-08T01:03:25.730Z,76.42
2018-07-08T01:04:25.746Z,76.08
2018-07-08T01:06:18.677Z,76.52
2018-07-08T01:07:18.674Z,76.14
2018-07-08T01:09:11.579Z,76.81
2018-07-08T01:10:11.601Z,77.09
2018-07-08T01:12:04.528Z,77.28
2018-07-08T01:13:04.531Z,77.48
2018-07-08T01:14:58.458Z,77.19
2018-07-08T01:15:58.456Z,77.48
2018-07-08T01:17:51.384Z,77.38
2018-07-08T01:18:51.387Z,77.00
2018-07-08T01:20:44.312Z,77.19
2018-07-08T01:21:44.310Z,76.71
2018-07-08T01:23:44.386Z,76.71
2018-07-08T01:24:44.358Z,76.04
2018-07-08T01:26:30.169Z,76.81
2018-07-08T01:27:30.165Z,77.09
2018-07-08T01:29:23.072Z,78.05
2018-07-08T01:30:23.091Z,77.19
2018-07-08T01:32:16.022Z,77.15
2018-07-08T01:33:16.036Z,77.63
2018-07-08T01:35:08.927Z,77.72
2018-07-08T01:36:08.946Z,77.72
2018-07-08T01:38:01.875Z,77.92
2018-07-08T01:39:01.874Z,78.01
2018-07-08T01:40:54.799Z,77.72
2018-07-08T01:41:54.799Z,77.63
2018-07-08T01:43:47.712Z,77.72
2018-07-08T01:44:47.730Z,78.01
2018-07-08T01:46:40.657Z,77.72
2018-07-08T01:47:40.661Z,77.92
2018-07-08T01:49:33.569Z,77.72
2018-07-08T01:50:33.586Z,77.72
2018-07-08T01:52:26.514Z,77.92
2018-07-08T01:53:26.514Z,77.92
2018-07-08T01:55:19.419Z,77.82
2018-07-08T01:56:19.439Z,77.92
2018-07-08T01:58:12.369Z,78.11
2018-07-08T01:59:12.367Z,78.01
2018-07-08T02:01:06.293Z,78.11
2018-07-08T02:02:06.290Z,77.72
2018-07-08T02:03:59.193Z,77.72
2018-07-08T02:04:59.214Z,77.63
2018-07-08T02:06:52.158Z,77.92
2018-07-08T02:07:52.140Z,77.72
2018-07-08T02:09:45.049Z,78.68
2018-07-08T02:10:45.065Z,77.63
2018-07-08T02:12:37.992Z,78.58
2018-07-08T02:13:37.993Z,78.68
2018-07-08T02:15:30.898Z,78.39
2018-07-08T02:16:30.917Z,78.39
2018-07-08T02:18:23.846Z,78.78
2018-07-08T02:19:23.843Z,78.87
2018-07-08T02:21:16.786Z,78.39
2018-07-08T02:22:16.768Z,78.78
2018-07-08T02:24:09.748Z,78.78
2018-07-08T02:25:09.697Z,78.78
2018-07-08T02:27:02.625Z,78.78
2018-07-08T02:28:02.625Z,78.83
2018-07-08T02:29:55.564Z,78.93
2018-07-08T02:30:55.553Z,78.74
2018-07-08T02:32:48.485Z,78.74
2018-07-08T02:33:48.482Z,78.45
2018-07-08T02:35:41.389Z,79.02
2018-07-08T02:36:41.411Z,78.93
2018-07-08T02:38:34.334Z,79.22
2018-07-08T02:39:34.334Z,79.41
2018-07-08T02:41:27.379Z,79.02
2018-07-08T02:42:27.271Z,79.31
2018-07-08T02:44:20.215Z,79.88
2018-07-08T02:45:20.193Z,80.27
2018-07-08T02:47:13.119Z,80.07
2018-07-08T02:48:13.118Z,79.88
2018-07-08T02:50:06.029Z,80.07
2018-07-08T02:51:06.048Z,80.07
2018-07-08T02:52:58.977Z,79.79
2018-07-08T02:53:58.977Z,79.50
2018-07-08T02:55:51.899Z,79.41
2018-07-08T02:56:51.899Z,79.88
2018-07-08T02:58:44.825Z,79.31
2018-07-08T02:59:44.825Z,79.31
2018-07-08T03:01:37.736Z,79.41
2018-07-08T03:02:37.751Z,79.50
2018-07-08T03:04:30.681Z,79.50
2018-07-08T03:05:30.678Z,79.41
2018-07-08T03:07:23.607Z,79.79
2018-07-08T03:08:23.604Z,79.69
2018-07-08T03:10:16.534Z,79.79
2018-07-08T03:11:16.533Z,80.27
2018-07-08T03:13:09.462Z,80.27
2018-07-08T03:14:09.460Z,80.27
2018-07-08T03:16:02.367Z,80.36
2018-07-08T03:17:02.387Z,80.55
2018-07-08T03:18:55.314Z,80.55
2018-07-08T03:19:55.315Z,80.61
2018-07-08T03:21:48.225Z,80.46
2018-07-08T03:22:48.246Z,80.55
2018-07-08T03:24:41.171Z,80.84
2018-07-08T03:25:41.171Z,80.61
2018-07-08T03:27:34.076Z,80.36
2018-07-08T03:28:34.096Z,80.36
2018-07-08T03:30:27.022Z,80.07
2018-07-08T03:31:27.021Z,80.07
2018-07-08T03:33:20.005Z,80.93
2018-07-08T03:34:19.950Z,80.36
2018-07-08T03:36:12.854Z,80.46
2018-07-08T03:37:12.876Z,80.07
2018-07-08T03:39:05.800Z,80.17
2018-07-08T03:40:05.798Z,80.04
2018-07-08T03:41:58.710Z,80.36
2018-07-08T03:42:58.727Z,80.13
2018-07-08T03:44:51.668Z,80.17
2018-07-08T03:45:51.653Z,80.17
2018-07-08T03:47:44.558Z,80.46
2018-07-08T03:48:44.578Z,80.27
2018-07-08T03:50:37.503Z,79.98
2018-07-08T03:51:37.502Z,80.36
2018-07-08T03:53:30.441Z,80.69
2018-07-08T03:54:30.432Z,80.40
2018-07-08T03:56:23.338Z,79.58
2018-07-08T03:57:23.355Z,78.81
2018-07-08T03:59:16.285Z,77.04
2018-07-08T04:00:16.282Z,77.17
2018-07-08T04:02:09.688Z,75.35
2018-07-08T04:03:09.730Z,74.15
2018-07-08T04:05:03.131Z,72.07
2018-07-08T04:06:03.132Z,71.50
2018-07-08T04:07:56.095Z,70.48
2018-07-08T04:08:56.056Z,69.23
2018-07-08T04:10:48.987Z,67.06
2018-07-08T04:11:48.991Z,66.61
2018-07-08T04:13:41.900Z,66.13
2018-07-08T04:14:41.916Z,65.59
2018-07-08T04:16:34.848Z,63.86
2018-07-08T04:17:34.852Z,62.93
2018-07-08T04:19:27.779Z,61.71
2018-07-08T04:20:27.781Z,61.43
2018-07-08T04:22:20.693Z,60.75
2018-07-08T04:23:20.718Z,60.17
2018-07-08T04:25:13.647Z,60.49
2018-07-08T04:26:13.648Z,59.44
2018-07-08T04:28:06.562Z,59.05
2018-07-08T04:29:06.586Z,58.86
2018-07-08T04:30:59.521Z,58.02
2018-07-08T04:31:59.522Z,58.79
2018-07-08T04:33:52.478Z,57.64
2018-07-08T04:34:52.459Z,57.45
2018-07-08T04:36:45.392Z,57.09
2018-07-08T04:37:45.403Z,56.41
2018-07-08T04:39:38.329Z,56.96
2018-07-08T04:40:38.333Z,57.35
2018-07-08T04:42:31.249Z,58.50
2018-07-08T04:43:31.281Z,58.47
2018-07-08T04:45:24.210Z,58.09
2018-07-08T04:46:24.218Z,59.15
2018-07-08T04:48:17.137Z,58.67
2018-07-08T04:49:17.202Z,59.34
2018-07-08T04:51:10.115Z,59.15
2018-07-08T04:52:10.098Z,58.31
2018-07-08T04:54:03.014Z,58.02
2018-07-08T04:55:03.039Z,57.47
2018-07-08T04:56:55.977Z,56.25
2018-07-08T04:57:55.985Z,55.48
2018-07-08T04:59:48.903Z,53.99
2018-07-08T05:00:48.977Z,53.34
2018-07-08T05:02:41.862Z,52.21
2018-07-08T05:03:41.864Z,52.04
2018-07-08T05:05:34.802Z,49.95
2018-07-08T05:06:34.846Z,49.17
2018-07-08T05:08:27.731Z,47.94
2018-07-08T05:09:27.755Z,48.06
2018-07-08T05:11:20.724Z,47.02
2018-07-08T05:12:20.725Z,46.63
2018-07-08T05:14:13.641Z,46.90
2018-07-08T05:15:13.673Z,47.16
2018-07-08T05:17:06.619Z,47.84
2018-07-08T05:18:06.626Z,47.91
2018-07-08T05:19:59.547Z,48.59
2018-07-08T05:20:59.576Z,48.97
2018-07-08T05:22:52.513Z,49.07
2018-07-08T05:23:52.520Z,48.97
2018-07-08T05:25:45.464Z,49.07
2018-07-08T05:26:45.471Z,48.61
2018-07-08T05:28:38.394Z,47.84
2018-07-08T05:29:38.422Z,47.86
2018-07-08T05:31:31.362Z,46.70
2018-07-08T05:32:31.372Z,46.83
2018-07-08T05:34:24.299Z,45.95
2018-07-08T05:35:24.324Z,45.95
2018-07-08T05:37:17.264Z,45.68
2018-07-08T05:38:17.272Z,44.91
2018-07-08T05:40:10.198Z,45.01
2018-07-08T05:41:10.226Z,44.53
2018-07-08T05:43:03.169Z,44.53
2018-07-08T05:44:03.221Z,44.81
2018-07-08T05:45:56.123Z,45.47
2018-07-08T05:46:56.128Z,45.66
2018-07-08T05:48:49.055Z,46.17
2018-07-08T05:49:49.082Z,45.57
2018-07-08T05:51:42.547Z,45.71
2018-07-08T05:52:42.583Z,44.45
2018-07-08T05:54:35.479Z,44.35
2018-07-08T05:55:35.534Z,44.47
2018-07-08T05:57:28.452Z,44.35
2018-07-08T05:58:28.462Z,44.35
2018-07-08T06:00:21.389Z,44.47
2018-07-08T06:01:21.418Z,44.74
2018-07-08T06:03:14.371Z,44.84
2018-07-08T06:04:14.379Z,45.59
2018-07-08T06:06:07.338Z,44.54
2018-07-08T06:07:14.454Z,45.32
2018-07-08T06:09:00.327Z,44.67
2018-07-08T06:10:00.295Z,44.37
2018-07-08T06:11:53.247Z,44.57
2018-07-08T06:12:53.252Z,43.99
2018-07-08T06:14:46.182Z,43.33
2018-07-08T06:15:46.214Z,42.48
2018-07-08T06:17:39.167Z,42.57
2018-07-08T06:18:39.177Z,42.19
2018-07-08T06:20:32.104Z,43.52
2018-07-08T06:21:32.133Z,43.33
2018-07-08T06:23:25.088Z,43.89
2018-07-08T06:24:32.216Z,43.82
2018-07-08T06:26:18.019Z,43.41
2018-07-08T06:27:25.171Z,44.27
2018-07-08T06:29:11.005Z,45.22
2018-07-08T06:30:11.014Z,45.01
2018-07-08T06:32:03.967Z,45.86
2018-07-08T06:33:03.975Z,46.44
2018-07-08T06:34:56.902Z,46.08
2018-07-08T06:35:56.935Z,45.81
2018-07-08T06:37:49.923Z,44.67
2018-07-08T06:38:57.014Z,44.37
2018-07-08T06:40:50.037Z,43.82
2018-07-08T06:41:49.982Z,43.35
2018-07-08T06:43:42.967Z,43.72
2018-07-08T06:44:42.945Z,43.62
2018-07-08T06:46:35.935Z,44.37
2018-07-08T06:47:36.913Z,44.76
2018-07-08T06:49:28.866Z,44.47
2018-07-08T06:50:21.749Z,44.67
2018-07-08T06:52:14.711Z,44.96
2018-07-08T06:53:14.713Z,44.47
2018-07-08T06:55:14.799Z,44.40
2018-07-08T06:56:14.798Z,44.40
2018-07-08T06:58:00.632Z,44.57
2018-07-08T06:59:00.640Z,44.74
2018-07-08T07:00:53.574Z,45.78
2018-07-08T07:01:53.605Z,45.66
2018-07-08T07:03:46.554Z,46.80
2018-07-08T07:04:46.565Z,47.00
2018-07-08T07:06:39.528Z,46.70
2018-07-08T07:07:46.644Z,46.70
2018-07-08T07:09:32.468Z,47.55
2018-07-08T07:10:39.595Z,47.84
2018-07-08T07:12:25.407Z,49.73
2018-07-08T07:13:32.552Z,50.50
2018-07-08T07:15:25.567Z,50.47
2018-07-08T07:16:25.502Z,50.89
2018-07-08T07:18:11.341Z,49.70
2018-07-08T07:19:11.338Z,50.57
2018-07-08T07:21:04.313Z,50.86
2018-07-08T07:22:04.332Z,50.38
2018-07-08T07:23:57.238Z,48.66
2018-07-08T07:24:57.247Z,48.59
2018-07-08T07:26:50.180Z,46.88
2018-07-08T07:27:50.209Z,45.14
2018-07-08T07:29:43.164Z,44.57
2018-07-08T07:30:43.207Z,44.89
2018-07-08T07:32:36.096Z,44.70
2018-07-08T07:33:36.126Z,44.31
2018-07-08T07:35:29.101Z,44.31
2018-07-08T07:36:29.088Z,44.21
2018-07-08T07:38:22.020Z,44.60
2018-07-08T07:39:22.051Z,44.77
2018-07-08T07:41:15.001Z,45.35
2018-07-08T07:42:15.009Z,45.66
2018-07-08T07:44:07.966Z,47.00
2018-07-08T07:45:07.964Z,46.90
2018-07-08T07:47:00.887Z,47.36
2018-07-08T07:48:00.916Z,47.63
2018-07-08T07:49:54.039Z,48.49
2018-07-08T07:50:53.886Z,48.79
2018-07-08T07:52:46.804Z,48.76
2018-07-08T07:53:46.833Z,48.59
2018-07-08T07:55:39.785Z,49.63
2018-07-08T07:56:39.787Z,50.09
2018-07-08T07:58:32.708Z,49.70
2018-07-08T07:59:32.732Z,49.70
2018-07-08T08:01:25.681Z,50.18
2018-07-08T08:02:25.679Z,50.09
2018-07-08T08:04:18.619Z,49.12
2018-07-08T08:05:19.369Z,47.41
2018-07-08T08:07:11.552Z,48.93
2018-07-08T08:08:11.579Z,49.70
2018-07-08T08:10:04.514Z,50.26
2018-07-08T08:11:04.523Z,50.28
2018-07-08T08:12:57.443Z,49.32
2018-07-08T08:13:57.632Z,48.93
2018-07-08T08:15:50.410Z,48.47
2018-07-08T08:16:50.415Z,48.37
2018-07-08T08:18:43.332Z,47.31
2018-07-08T08:19:43.361Z,47.60
2018-07-08T08:21:36.298Z,46.83
2018-07-08T08:22:36.304Z,46.73
2018-07-08T08:24:29.243Z,47.31
2018-07-08T08:25:29.244Z,45.18
2018-07-08T08:27:22.163Z,45.36
2018-07-08T08:28:22.189Z,45.55
2018-07-08T08:30:15.125Z,45.26
2018-07-08T08:31:15.134Z,45.84
2018-07-08T08:33:08.051Z,45.45
2018-07-08T08:34:08.086Z,45.55
2018-07-08T08:36:01.019Z,45.18
2018-07-08T08:37:01.022Z,44.51
2018-07-08T08:38:53.975Z,44.29
2018-07-08T08:39:53.970Z,43.43
2018-07-08T08:41:46.949Z,42.85
2018-07-08T08:42:46.917Z,42.85
2018-07-08T08:44:39.843Z,43.04
2018-07-08T08:45:39.863Z,43.14
2018-07-08T08:47:32.908Z,43.33
2018-07-08T08:48:32.808Z,43.04
2018-07-08T08:50:25.766Z,43.14
2018-07-08T08:51:32.869Z,43.33
2018-07-08T08:53:25.813Z,42.10
2018-07-08T08:54:18.698Z,42.19
2018-07-08T08:56:11.637Z,41.61
2018-07-08T08:57:11.645Z,40.75
2018-07-08T08:59:04.557Z,40.65
2018-07-08T09:00:04.581Z,41.13
2018-07-08T09:01:58.513Z,42.19
2018-07-08T09:02:58.520Z,41.61
2018-07-08T09:04:51.436Z,42.27
2018-07-08T09:05:51.462Z,42.87
2018-07-08T09:07:44.401Z,41.03
2018-07-08T09:08:44.404Z,41.03
2018-07-08T09:10:37.360Z,42.89
2018-07-08T09:11:37.350Z,42.87
2018-07-08T09:13:30.264Z,42.10
2018-07-08T09:14:30.296Z,43.06
2018-07-08T09:16:23.225Z,42.00
2018-07-08T09:17:23.312Z,42.48
2018-07-08T09:19:16.154Z,42.02
2018-07-08T09:20:16.178Z,41.54
2018-07-08T09:22:09.114Z,40.38
2018-07-08T09:23:09.123Z,40.38
2018-07-08T09:25:02.058Z,40.28
2018-07-08T09:26:02.066Z,40.67
2018-07-08T09:27:55.007Z,41.05
2018-07-08T09:28:55.009Z,42.02
2018-07-08T09:30:47.956Z,40.86
2018-07-08T09:31:47.965Z,40.19
2018-07-08T09:33:40.886Z,40.19
2018-07-08T09:34:40.914Z,39.61
2018-07-08T09:36:33.860Z,40.19
2018-07-08T09:37:33.863Z,40.38
2018-07-08T09:39:26.786Z,39.70
2018-07-08T09:40:26.809Z,40.19
2018-07-08T09:42:19.745Z,40.28
2018-07-08T09:43:19.755Z,40.38
2018-07-08T09:45:12.670Z,40.38
2018-07-08T09:46:12.696Z,40.38
2018-07-08T09:48:05.634Z,40.47
2018-07-08T09:49:05.644Z,41.85
2018-07-08T09:50:58.646Z,41.75
2018-07-08T09:51:58.583Z,41.36
2018-07-08T09:53:51.500Z,40.01
2018-07-08T09:54:51.530Z,40.20
2018-07-08T09:56:44.464Z,40.59
2018-07-08T09:57:44.473Z,40.42
2018-07-08T09:59:37.388Z,40.23
2018-07-08T10:00:37.415Z,40.23
2018-07-08T10:02:30.360Z,39.64
2018-07-08T10:03:30.361Z,39.55
2018-07-08T10:05:23.414Z,40.42
2018-07-08T10:06:23.442Z,40.59
2018-07-08T10:08:16.377Z,40.20
2018-07-08T10:09:16.398Z,40.32
2018-07-08T10:11:09.321Z,39.55
2018-07-08T10:12:09.340Z,39.57
2018-07-08T10:14:02.417Z,39.47
2018-07-08T10:15:02.288Z,38.79
2018-07-08T10:16:55.223Z,37.92
2018-07-08T10:17:55.230Z,37.54
2018-07-08T10:19:48.276Z,37.73
2018-07-08T10:20:48.185Z,38.50
2018-07-08T10:22:41.133Z,39.09
2018-07-08T10:23:41.135Z,39.09
2018-07-08T10:25:34.204Z,38.31
2018-07-08T10:26:34.235Z,38.78
2018-07-08T10:28:27.176Z,38.89
2018-07-08T10:29:27.179Z,39.57
2018-07-08T10:31:20.106Z,40.34
2018-07-08T10:32:20.127Z,39.18
2018-07-08T10:34:13.069Z,39.06
2018-07-08T10:35:13.077Z,39.55
2018-07-08T10:37:05.999Z,40.71
2018-07-08T10:38:06.048Z,39.94
2018-07-08T10:39:58.971Z,39.28
2018-07-08T10:40:58.974Z,38.99
2018-07-08T10:42:51.919Z,38.70
2018-07-08T10:43:51.928Z,38.79
2018-07-08T10:45:44.908Z,37.85
2018-07-08T10:46:44.874Z,38.13
2018-07-08T10:48:37.819Z,37.36
2018-07-08T10:49:37.822Z,37.07
2018-07-08T10:51:30.779Z,38.50
2018-07-08T10:52:30.771Z,38.33
2018-07-08T10:54:23.714Z,36.88
2018-07-08T10:55:23.768Z,36.68
2018-07-08T10:57:16.641Z,37.26
2018-07-08T10:58:16.668Z,37.55
2018-07-08T11:00:09.614Z,37.75
2018-07-08T11:01:09.617Z,37.26
2018-07-08T11:03:02.572Z,36.58
2018-07-08T11:04:02.567Z,36.49
2018-07-08T11:05:55.490Z,36.40
2018-07-08T11:06:55.514Z,36.76
2018-07-08T11:08:48.460Z,37.34
2018-07-08T11:09:48.463Z,37.92
2018-07-08T11:11:41.387Z,37.36
2018-07-08T11:12:41.414Z,37.26
2018-07-08T11:14:34.354Z,37.05
2018-07-08T11:15:34.363Z,37.34
2018-07-08T11:17:27.313Z,36.49
2018-07-08T11:18:27.342Z,36.40
2018-07-08T11:20:20.289Z,36.10
2018-07-08T11:21:20.296Z,36.00
2018-07-08T11:23:13.219Z,37.07
2018-07-08T11:24:13.245Z,37.46
2018-07-08T11:26:06.185Z,37.28
2018-07-08T11:27:06.194Z,35.73
2018-07-08T11:28:59.142Z,35.73
2018-07-08T11:29:59.147Z,35.83
2018-07-08T11:31:52.075Z,35.35
2018-07-08T11:32:52.099Z,35.64
2018-07-08T11:34:45.050Z,34.86
2018-07-08T11:35:45.054Z,34.36
2018-07-08T11:37:37.979Z,33.60
2018-07-08T11:38:38.009Z,34.19
2018-07-08T11:40:32.445Z,33.99
2018-07-08T11:41:32.456Z,34.28
2018-07-08T11:43:25.380Z,34.57
2018-07-08T11:44:25.416Z,34.09
2018-07-08T11:46:18.351Z,34.19
2018-07-08T11:47:18.361Z,34.47
2018-07-08T11:49:11.347Z,35.25
2018-07-08T11:50:11.316Z,35.54
2018-07-08T11:52:04.239Z,34.86
2018-07-08T11:53:04.266Z,34.78
2018-07-08T11:54:58.703Z,35.17
2018-07-08T11:55:58.710Z,35.36
2018-07-08T11:57:51.691Z,33.83
2018-07-08T11:58:51.662Z,34.22
2018-07-08T12:00:44.611Z,33.73
2018-07-08T12:01:44.624Z,33.72
2018-07-08T12:03:37.546Z,33.72
2018-07-08T12:04:37.577Z,33.83
2018-07-08T12:06:30.585Z,33.04
2018-07-08T12:07:30.531Z,33.81
2018-07-08T12:09:23.949Z,34.20
2018-07-08T12:10:23.974Z,33.62
2018-07-08T12:12:16.917Z,33.62
2018-07-08T12:13:16.927Z,34.30
2018-07-08T12:15:09.869Z,33.92
2018-07-08T12:16:09.878Z,33.92
2018-07-08T12:18:02.799Z,32.67
2018-07-08T12:19:02.832Z,33.33
2018-07-08T12:20:55.770Z,33.15
2018-07-08T12:21:55.777Z,33.06
2018-07-08T12:23:50.195Z,33.15
2018-07-08T12:24:50.230Z,33.34
2018-07-08T12:26:43.172Z,33.06
2018-07-08T12:27:43.203Z,33.73
2018-07-08T12:29:36.106Z,33.34
2018-07-08T12:30:36.136Z,33.25
2018-07-08T12:32:29.078Z,33.25
2018-07-08T12:33:29.086Z,33.06
2018-07-08T12:35:22.540Z,33.83
2018-07-08T12:36:22.546Z,34.23
2018-07-08T12:38:15.470Z,33.26
2018-07-08T12:39:15.501Z,33.26
2018-07-08T12:41:08.444Z,32.59
2018-07-08T12:42:08.451Z,32.49
2018-07-08T12:44:01.433Z,32.59
2018-07-08T12:45:01.412Z,32.39
2018-07-08T12:46:54.844Z,32.39
2018-07-08T12:47:54.855Z,32.39
2018-07-08T12:49:47.781Z,32.99
2018-07-08T12:50:47.812Z,32.70
2018-07-08T12:52:40.759Z,32.29
2018-07-08T12:53:40.763Z,32.68
2018-07-08T12:55:33.713Z,32.68
2018-07-08T12:56:33.715Z,32.59
2018-07-08T12:58:27.136Z,32.68
2018-07-08T12:59:27.166Z,32.29
2018-07-08T13:01:20.115Z,32.59
2018-07-08T13:02:20.122Z,32.97
2018-07-08T13:04:13.048Z,32.78
2018-07-08T13:05:13.082Z,32.78
2018-07-08T13:07:06.515Z,32.70
2018-07-08T13:08:06.525Z,32.60
2018-07-08T13:09:59.450Z,32.70
2018-07-08T13:10:59.477Z,32.70
2018-07-08T13:12:53.918Z,32.60
2018-07-08T13:13:53.929Z,32.99
2018-07-08T13:15:46.878Z,33.17
2018-07-08T13:16:46.890Z,33.56
2018-07-08T13:18:39.827Z,32.59
2018-07-08T13:19:39.846Z,32.68
2018-07-08T13:21:33.542Z,32.70
2018-07-08T13:22:33.331Z,32.60
2018-07-08T13:24:26.253Z,32.20
2018-07-08T13:25:26.283Z,32.21
2018-07-08T13:27:19.232Z,31.63
2018-07-08T13:28:19.238Z,32.31
2018-07-08T13:30:12.165Z,31.05
2018-07-08T13:31:12.195Z,30.47
2018-07-08T13:33:05.141Z,30.29
2018-07-08T13:34:05.152Z,30.38
2018-07-08T13:35:58.614Z,30.29
2018-07-08T13:36:58.677Z,30.87
2018-07-08T13:38:52.055Z,30.00
2018-07-08T13:39:52.060Z,30.19
2018-07-08T13:41:45.009Z,29.80
2018-07-08T13:42:45.029Z,29.30
2018-07-08T13:44:37.942Z,30.09
2018-07-08T13:45:37.974Z,29.71
2018-07-08T13:47:32.016Z,30.29
2018-07-08T13:48:31.923Z,29.51
2018-07-08T13:50:25.371Z,29.69
2018-07-08T13:51:25.369Z,29.51
2018-07-08T13:53:18.319Z,29.51
2018-07-08T13:54:18.328Z,29.12
2018-07-08T13:56:11.253Z,29.41
2018-07-08T13:57:11.283Z,29.71
2018-07-08T13:59:04.247Z,29.61
2018-07-08T14:00:04.234Z,29.61
2018-07-08T14:01:57.683Z,29.80
2018-07-08T14:02:57.686Z,29.41
2018-07-08T14:04:50.606Z,29.80
2018-07-08T14:05:50.633Z,29.22
2018-07-08T14:07:43.575Z,28.54
2018-07-08T14:08:43.588Z,29.12
2018-07-08T14:10:36.515Z,28.83
2018-07-08T14:11:36.545Z,28.74
2018-07-08T14:13:29.493Z,28.83
2018-07-08T14:14:29.500Z,28.44
2018-07-08T14:16:22.565Z,28.54
2018-07-08T14:17:22.482Z,28.07
2018-07-08T14:19:15.430Z,28.45
2018-07-08T14:20:15.473Z,28.65
2018-07-08T14:22:08.483Z,27.67
2018-07-08T14:23:08.480Z,27.48
2018-07-08T14:25:02.903Z,27.68
2018-07-08T14:26:02.928Z,27.00
2018-07-08T14:27:56.934Z,27.39
2018-07-08T14:28:56.907Z,27.10
2018-07-08T14:30:49.827Z,27.48
2018-07-08T14:31:49.855Z,28.45
2018-07-08T14:33:43.295Z,27.78
2018-07-08T14:34:43.313Z,27.68
2018-07-08T14:36:36.289Z,28.17
2018-07-08T14:37:36.285Z,27.87
2018-07-08T14:39:29.205Z,27.19
2018-07-08T14:40:29.266Z,27.87
2018-07-08T14:42:22.677Z,27.58
2018-07-08T14:43:22.688Z,27.48
2018-07-08T14:45:15.616Z,28.26
2018-07-08T14:46:15.727Z,27.39
2018-07-08T14:48:08.594Z,28.26
2018-07-08T14:49:08.608Z,27.87
2018-07-08T14:51:01.634Z,26.32
2018-07-08T14:52:01.585Z,27.00
2018-07-08T14:53:54.506Z,27.68
2018-07-08T14:54:54.533Z,27.10
2018-07-08T14:56:47.439Z,27.48
2018-07-08T14:57:47.472Z,27.39
2018-07-08T14:59:40.434Z,27.58
2018-07-08T15:00:40.427Z,27.58
2018-07-08T15:02:33.872Z,27.48
2018-07-08T15:03:33.789Z,27.48
2018-07-08T15:05:26.716Z,27.68
2018-07-08T15:06:26.750Z,27.19
2018-07-08T15:08:19.698Z,27.19
2018-07-08T15:09:19.702Z,27.48
2018-07-08T15:11:12.662Z,28.07
2018-07-08T15:12:12.657Z,28.55
2018-07-08T15:14:05.610Z,28.17
2018-07-08T15:15:05.615Z,27.97
2018-07-08T15:16:58.566Z,28.45
2018-07-08T15:17:58.598Z,28.47
2018-07-08T15:19:51.600Z,27.39
2018-07-08T15:20:51.617Z,27.87
2018-07-08T15:22:44.523Z,28.26
2018-07-08T15:23:44.548Z,27.78
2018-07-08T15:25:37.500Z,27.87
2018-07-08T15:26:37.504Z,27.48
2018-07-08T15:28:30.507Z,28.38
2018-07-08T15:29:30.463Z,27.40
2018-07-08T15:31:23.908Z,27.19
2018-07-08T15:32:23.953Z,27.58
2018-07-08T15:34:17.437Z,27.68
2018-07-08T15:35:17.446Z,27.97
2018-07-08T15:37:10.475Z,27.79
2018-07-08T15:38:10.508Z,27.89
2018-07-08T15:40:03.588Z,27.40
2018-07-08T15:41:03.571Z,27.98
2018-07-08T15:42:56.490Z,28.18
2018-07-08T15:43:56.520Z,28.47
2018-07-08T15:45:49.466Z,28.38
2018-07-08T15:46:49.515Z,28.76
2018-07-08T15:48:42.429Z,28.08
2018-07-08T15:49:42.449Z,28.28
2018-07-08T15:51:35.875Z,28.57
2018-07-08T15:52:35.903Z,28.66
2018-07-08T15:54:28.854Z,29.05
2018-07-08T15:55:28.864Z,28.57
2018-07-08T15:57:22.346Z,28.57
2018-07-08T15:58:22.360Z,28.57
2018-07-08T16:00:15.864Z,28.86
2018-07-08T16:01:15.834Z,29.04
2018-07-08T16:03:08.765Z,29.35
2018-07-08T16:04:08.794Z,29.15
2018-07-08T16:06:01.757Z,28.86
2018-07-08T16:07:01.893Z,28.96
2018-07-08T16:08:54.698Z,28.76
2018-07-08T16:09:54.703Z,28.57
2018-07-08T16:11:47.631Z,28.86
2018-07-08T16:12:47.659Z,28.66
2018-07-08T16:14:40.611Z,29.05
2018-07-08T16:15:40.620Z,28.76
2018-07-08T16:17:33.547Z,28.96
2018-07-08T16:18:33.822Z,28.55
2018-07-08T16:20:26.528Z,28.85
2018-07-08T16:21:26.532Z,29.14
2018-07-08T16:23:19.457Z,29.14
2018-07-08T16:24:19.489Z,28.85
2018-07-08T16:26:13.935Z,29.33
2018-07-08T16:27:13.938Z,29.33
2018-07-08T16:29:06.864Z,29.44
2018-07-08T16:30:06.898Z,29.64
2018-07-08T16:31:59.862Z,29.44
2018-07-08T16:32:59.868Z,29.46
2018-07-08T16:34:52.819Z,29.15
2018-07-08T16:35:52.820Z,29.83
2018-07-08T16:37:45.763Z,29.35
2018-07-08T16:38:45.808Z,29.25
2018-07-08T16:40:38.736Z,29.33
2018-07-08T16:41:38.744Z,29.72
2018-07-08T16:43:31.661Z,30.11
2018-07-08T16:44:31.695Z,30.30
2018-07-08T16:46:25.430Z,30.59
2018-07-08T16:47:25.441Z,30.40
2018-07-08T16:49:18.385Z,30.40
2018-07-08T16:50:18.443Z,30.59
2018-07-08T16:52:11.341Z,31.08
2018-07-08T16:53:11.350Z,30.69
2018-07-08T16:55:04.297Z,30.69
2018-07-08T16:56:04.307Z,30.98
2018-07-08T16:57:57.234Z,30.79
2018-07-08T16:58:57.265Z,30.59
2018-07-08T17:00:50.209Z,30.79
2018-07-08T17:01:50.220Z,31.37
2018-07-08T17:03:43.149Z,31.37
2018-07-08T17:04:43.176Z,31.08
2018-07-08T17:06:36.142Z,31.47
2018-07-08T17:07:36.139Z,31.57
2018-07-08T17:09:29.066Z,31.95
2018-07-08T17:10:29.125Z,32.13
2018-07-08T17:12:22.041Z,32.04
2018-07-08T17:13:22.046Z,32.15
2018-07-08T17:15:14.988Z,31.45
2018-07-08T17:16:15.053Z,31.95
2018-07-08T17:18:07.938Z,32.32
2018-07-08T17:19:07.957Z,32.32
2018-07-08T17:21:01.428Z,32.04
2018-07-08T17:22:00.913Z,32.05
2018-07-08T17:23:53.839Z,32.34
2018-07-08T17:24:53.868Z,32.64
2018-07-08T17:26:48.373Z,32.62
2018-07-08T17:27:48.318Z,32.42
2018-07-08T17:29:41.252Z,32.71
2018-07-08T17:30:41.285Z,32.81
2018-07-08T17:32:34.227Z,33.11
2018-07-08T17:33:34.302Z,33.78
2018-07-08T17:35:27.206Z,33.49
2018-07-08T17:36:27.199Z,33.29
2018-07-08T17:38:20.675Z,33.20
2018-07-08T17:39:20.681Z,33.01
2018-07-08T17:41:13.624Z,33.11
2018-07-08T17:42:13.674Z,33.11
2018-07-08T17:44:07.054Z,33.69
2018-07-08T17:45:07.087Z,33.86
2018-07-08T17:47:00.043Z,33.18
2018-07-08T17:48:00.068Z,33.88
2018-07-08T17:49:54.461Z,34.08
2018-07-08T17:50:54.487Z,34.27
2018-07-08T17:52:47.490Z,33.99
2018-07-08T17:53:47.448Z,33.70
2018-07-08T17:55:40.432Z,33.02
2018-07-08T17:56:40.422Z,32.73
2018-07-08T17:58:33.946Z,33.23
2018-07-08T17:59:33.956Z,33.04
2018-07-08T18:01:27.050Z,32.94
2018-07-08T18:02:27.012Z,33.04
2018-07-08T18:04:20.044Z,32.65
2018-07-08T18:05:20.072Z,32.67
2018-07-08T18:07:13.132Z,32.84
2018-07-08T18:08:13.133Z,32.86
2018-07-08T18:10:06.191Z,32.86
2018-07-08T18:11:06.182Z,33.34
2018-07-08T18:12:59.274Z,32.97
2018-07-08T18:13:59.320Z,32.97
2018-07-08T18:16:02.169Z,33.07
2018-07-08T18:17:02.196Z,32.78
2018-07-08T18:18:55.145Z,32.97
2018-07-08T18:19:55.149Z,32.78
2018-07-08T18:21:48.133Z,32.50
2018-07-08T18:22:48.108Z,32.29
2018-07-08T18:24:41.031Z,32.76
2018-07-08T18:25:41.060Z,33.06
2018-07-08T18:27:34.290Z,33.34
2018-07-08T18:28:34.273Z,33.06
2018-07-08T18:30:27.263Z,33.15
2018-07-08T18:31:27.263Z,33.25
2018-07-08T18:33:20.221Z,33.36